Segou, Mali
Current Conditions -  °F | °C
As of 12:00 AM on Monday 24 Nov 2014 (Local Time) from GABS Reporting Station
Clear Clear  
Wind Chill: 81°   Ceiling: Unl
Heat Index: 81°   Visibility: 6mi
Dew Point: 52°   Wind: 6mph
Humidity: 37%   Direction: 50°NE
Pressure: 29.97"   Gusts: NA
Location:  13.44°N, 6.26°W
Report Text: GABS 240000Z 05005KT 360V110 CAVOK 27/11 Q1015 NOSIG
Loading
Personal Weather Stations






























Interactive Weather Map New forecast layout! Learn more

10-Day Weather Forecast

Advertisements
Track Severe Weather on mobile